Latest Weather Observations for Argyle

IDW60801

Issued at 10:35 pm WST Thursday 2 October 2014 (issued every 30 minutes, with the page automatically refreshed every 10 minutes)

About weather observations | Map of weather stations | Latest weather observations for WA | Other Formats
Station Details ID: 002064 Name: ARGYLE AERODROME Lat: -16.64 Lon: 128.45 Height: 164.0 m
Data from the previous 72 hours. | See also: Recent months at Argyle
Date/Time
WST
Temp
°C
App
Temp
°C
Dew
Point
Rel
Hum
%
Delta-T
°C
Wind Press
QNH
hPa
Press
MSL
hPa
Rain
since 9 am
mm
Dir
 
Spd
km/h
Gust
km/h
Spd
kts
Gust
kts
02/10:30pm 31.3 30.9 12.3 31 11.3 S 6 7 3 4 1012.4 - 0.0
02/10:00pm 31.5 32.4 12.8 32 11.2 SSW 0 0 0 0 1012.6 - 0.0
02/09:30pm 31.2 30.5 12.1 31 11.3 SSE 7 11 4 6 1012.9 - 0.0
02/09:00pm 31.3 31.5 11.8 30 11.5 E 2 7 1 4 1012.8 1011.5 0.0
02/08:30pm 31.8 32.3 12.8 31 11.4 NW 2 6 1 3 1012.7 - 0.0
02/08:00pm 32.8 32.3 12.2 28 12.3 W 6 6 3 3 1012.4 - 0.0
02/07:30pm 33.2 33.2 12.3 28 12.5 NNW 4 6 2 3 1012.1 - 0.0
02/07:00pm 33.5 33.2 13.3 29 12.3 N 7 7 4 4 1011.8 - 0.0
02/06:30pm 34.3 33.6 11.9 25 13.4 N 7 9 4 5 1011.5 - 0.0
02/06:00pm 34.5 33.9 12.4 26 13.3 NNE 7 9 4 5 1011.3 1010.0 0.0
02/05:30pm 35.3 34.0 11.2 23 14.3 NNE 9 11 5 6 1011.0 - 0.0
02/05:00pm 35.9 33.3 10.7 21 14.9 NNE 15 20 8 11 1010.7 - 0.0
02/04:30pm 36.2 33.7 10.9 21 15.0 ENE 15 19 8 10 1010.2 - 0.0
02/04:00pm 36.6 33.2 10.6 20 15.4 NNE 19 22 10 12 1009.9 - 0.0
02/03:30pm 37.0 35.2 12.1 22 15.1 E 13 24 7 13 1009.7 - 0.0
02/03:00pm 37.3 34.3 12.6 22 15.1 NE 20 28 11 15 1009.7 1008.4 0.0
02/02:30pm 36.8 34.5 13.0 24 14.6 NNE 17 24 9 13 1010.0 - 0.0
02/02:00pm 37.0 35.1 13.1 24 14.7 NE 15 24 8 13 1010.3 - 0.0
02/01:30pm 36.7 34.0 12.8 24 14.6 NE 19 30 10 16 1010.6 - 0.0
02/01:00pm 37.2 33.9 11.6 21 15.4 NE 20 24 11 13 1011.0 - 0.0
02/12:30pm 37.7 32.4 8.6 17 16.8 E 26 39 14 21 1011.4 - 0.0
02/12:00pm 38.0 32.7 5.2 13 18.0 ENE 22 33 12 18 1011.8 1010.6 0.0
02/11:30am 37.9 33.4 8.4 16 17.0 E 22 30 12 16 1012.0 - 0.0
02/11:00am 37.4 35.1 11.9 21 15.4 NNE 15 24 8 13 1012.6 - 0.0
02/10:30am 36.2 34.2 11.4 22 14.8 NE 13 24 7 13 1013.1 - 0.0
02/10:00am 35.7 34.8 13.6 26 13.6 NNE 11 15 6 8 1013.7 - 0.0
02/09:30am 34.7 33.3 14.4 29 12.6 N 15 19 8 10 1014.1 - 0.0
02/09:00am 33.6 33.1 14.8 32 11.7 NNE 11 20 6 11 1014.4 1013.1 0.0
02/08:30am 32.7 32.3 15.2 34 10.9 NNW 11 17 6 9 1014.5 - 0.0
02/08:00am 31.7 30.5 15.1 36 10.3 N 15 20 8 11 1014.6 - 0.0
02/07:30am 31.1 29.6 14.2 35 10.3 N 15 19 8 10 1014.4 - 0.0
02/07:00am 29.4 29.8 16.3 45 8.2 ENE 9 13 5 7 1014.4 - 0.0
02/06:30am 28.1 28.2 14.4 43 8.3 NE 7 13 4 7 1014.0 - 0.0
02/06:00am 27.0 27.2 14.6 46 7.5 ESE 7 9 4 5 1013.4 1012.1 0.0
02/05:30am 25.4 25.4 14.2 50 6.7 E 7 9 4 5 1012.9 - 0.0
02/05:00am 26.3 26.3 14.3 47 7.2 S 7 9 4 5 1012.2 - 0.0
02/04:30am 26.4 26.6 14.2 47 7.3 SSW 6 7 3 4 1012.0 - 0.0
02/04:00am 26.8 26.3 13.9 45 7.7 W 9 11 5 6 1011.6 - 0.0
02/03:30am 27.7 28.8 13.4 41 8.5 CALM 0 0 0 0 1011.4 - 0.0
02/03:00am 27.7 28.5 14.7 45 7.9 ENE 4 9 2 5 1011.3 1010.0 0.0
02/02:30am 27.7 27.5 13.7 42 8.4 SE 7 11 4 6 1011.1 - 0.0
02/02:00am 28.4 28.0 14.0 41 8.7 SSE 9 11 5 6 1011.1 - 0.0
02/01:30am 28.4 27.8 13.5 40 8.9 SE 9 15 5 8 1011.3 - 0.0
02/01:00am 29.2 29.3 14.4 40 9.0 S 7 11 4 6 1011.5 - 0.0
02/12:30am 30.3 31.0 15.5 40 9.2 SW 6 7 3 4 1011.6 - 0.0
02/12:00am 29.8 31.4 15.0 40 9.1 CALM 0 0 0 0 1011.6 1010.4 0.0
 
Date/Time
WST
Temp
°C
App
Temp
°C
Dew
Point
Rel
Hum
%
Delta-T
°C
Wind Press
QNH
hPa
Press
MSL
hPa
Rain
since 9 am
mm
Dir
 
Spd
km/h
Gust
km/h
Spd
kts
Gust
kts
01/11:30pm 29.9 30.1 14.7 39 9.3 W 7 7 4 4 1011.8 - 0.0
01/11:00pm 30.1 29.8 14.4 38 9.6 NW 9 11 5 6 1012.1 - 0.0
01/10:30pm 30.3 30.0 14.4 38 9.7 NW 9 11 5 6 1012.5 - 0.0
01/10:00pm 30.6 29.7 13.8 35 10.2 NNW 11 13 6 7 1012.6 - 0.0
01/09:30pm 30.7 30.4 13.2 34 10.5 W 7 9 4 5 1012.6 - 0.0
01/09:00pm 32.1 32.0 13.2 31 11.4 NW 6 7 3 4 1012.6 1011.3 0.0
01/08:30pm 33.0 32.7 13.4 30 11.9 N 7 7 4 4 1012.7 - 0.0
01/08:00pm 33.0 33.4 14.8 33 11.3 NW 6 7 3 4 1012.4 - 0.0
01/07:30pm 33.1 32.9 13.6 30 11.9 N 7 7 4 4 1012.1 - 0.0
01/07:00pm 33.3 33.2 13.9 31 11.9 N 7 7 4 4 1011.9 - 0.0
01/06:30pm 33.6 33.4 13.7 30 12.2 N 7 9 4 5 1011.5 - 0.0
01/06:00pm 33.8 33.5 13.3 29 12.5 NNE 7 11 4 6 1011.3 1010.0 0.0
01/05:30pm 34.5 33.8 13.2 27 13.0 NNE 9 11 5 6 1010.9 - 0.0
01/05:00pm 35.2 34.1 13.1 26 13.5 NNE 11 15 6 8 1010.6 - 0.0
01/04:30pm 35.7 35.0 13.2 26 13.8 NNE 9 17 5 9 1010.3 - 0.0
01/04:00pm 36.1 34.3 13.3 25 14.0 NNE 15 22 8 12 1010.2 - 0.0
01/03:30pm 36.0 36.0 16.3 31 12.6 NNE 11 20 6 11 1010.2 - 0.0
01/03:00pm 36.1 34.6 13.1 25 14.1 E 13 22 7 12 1010.2 1008.9 0.0
01/02:30pm 36.6 34.2 12.7 23 14.6 NNE 17 26 9 14 1010.5 - 0.0
01/02:00pm 37.2 33.9 11.6 21 15.4 NNE 20 32 11 17 1010.7 - 0.0
01/01:30pm 36.8 34.7 11.2 21 15.3 ENE 13 26 7 14 1010.8 - 0.0
01/01:00pm 36.4 34.0 11.3 22 15.0 NE 15 26 8 14 1011.1 - 0.0
01/12:30pm 36.1 32.8 11.5 22 14.7 NNE 20 28 11 15 1011.9 - 0.0
01/12:00pm 36.6 33.6 11.9 22 14.9 E 19 28 10 15 1012.7 1011.4 0.0
01/11:30am 36.2 35.6 13.4 25 14.0 E 9 26 5 14 1013.2 - 0.0
01/11:00am 35.4 34.2 14.1 28 13.2 NNE 13 24 7 13 1013.7 - 0.0
01/10:30am 33.6 34.0 15.4 33 11.4 NNE 7 13 4 7 1014.3 - 0.0
01/10:00am 33.1 33.7 16.8 37 10.4 E 9 13 5 7 1014.7 - 0.0
01/09:30am 32.2 32.9 17.0 40 9.7 ENE 9 13 5 7 1015.2 - 0.0
01/09:00am 31.0 32.1 17.2 43 8.8 NNE 7 13 4 7 1015.4 1014.1 0.0
01/08:30am 30.3 31.2 18.4 49 7.7 NE 11 15 6 8 1015.6 - 0.0
01/08:00am 29.5 30.8 18.5 51 7.1 NNE 9 15 5 8 1015.5 - 0.0
01/07:30am 28.4 28.2 17.7 52 6.8 NE 15 20 8 11 1015.6 - 0.0
01/07:00am 27.4 27.1 15.5 48 7.3 ENE 11 17 6 9 1015.2 - 0.0
01/06:30am 25.8 26.4 15.3 52 6.4 E 6 7 3 4 1014.4 - 0.0
01/06:00am 24.9 25.2 14.9 53 6.0 E 7 9 4 5 1014.2 1012.9 0.0
01/05:30am 24.9 25.3 15.3 55 5.8 E 7 9 4 5 1013.8 - 0.0
01/05:00am 25.1 25.4 15.0 53 6.1 SE 7 9 4 5 1013.5 - 0.0
01/04:30am 24.9 26.1 15.0 54 6.0 W 2 7 1 4 1013.0 - 0.0
01/04:00am 25.8 26.5 15.5 53 6.3 WNW 6 7 3 4 1012.4 - 0.0
01/03:30am 26.1 26.5 15.3 51 6.6 W 7 9 4 5 1012.2 - 0.0
01/03:00am 26.5 26.3 14.8 48 7.1 W 9 9 5 5 1012.0 1010.8 0.0
01/02:30am 26.3 26.1 14.7 48 7.0 W 9 9 5 5 1011.9 - 0.0
01/02:00am 27.1 26.5 14.7 46 7.5 NNW 11 11 6 6 1011.7 - 0.0
01/01:30am 26.9 27.2 15.1 48 7.2 W 7 9 4 5 1011.9 - 0.0
01/01:00am 27.1 27.6 15.1 47 7.3 WSW 6 7 3 4 1011.8 - 0.0
01/12:30am 27.2 27.4 14.7 46 7.6 WSW 7 11 4 6 1012.0 - 0.0
01/12:00am 27.4 28.3 15.1 47 7.5 NW 4 7 2 4 1012.2 1011.2 0.0
 
Date/Time
WST
Temp
°C
App
Temp
°C
Dew
Point
Rel
Hum
%
Delta-T
°C
Wind Press
QNH
hPa
Press
MSL
hPa
Rain
since 9 am
mm
Dir
 
Spd
km/h
Gust
km/h
Spd
kts
Gust
kts
30/11:30pm 28.2 27.9 14.5 43 8.3 N 9 11 5 6 1012.2 - 0.0
30/11:00pm 28.7 27.7 14.6 42 8.6 N 13 15 7 8 1012.4 - 0.0
30/10:30pm 28.9 27.9 14.6 41 8.7 NW 13 15 7 8 1012.5 - 0.0
30/10:00pm 29.4 28.7 14.3 39 9.2 NNW 11 15 6 8 1012.6 - 0.0
30/09:30pm 30.2 28.6 13.9 37 9.9 NNW 15 22 8 12 1012.5 - 0.0
30/09:00pm 30.7 28.2 13.5 35 10.4 NNW 19 24 10 13 1012.7 1011.6 0.0
30/08:30pm 31.3 27.7 13.0 32 11.0 N 24 33 13 18 1012.6 - 0.0
30/08:00pm 32.0 28.6 11.4 28 12.1 N 20 24 11 13 1012.2 - 0.0
30/07:30pm 32.8 30.7 11.2 26 12.7 NNE 13 15 7 8 1011.8 - 0.0
30/07:00pm 32.9 30.6 10.6 25 13.0 NNE 13 17 7 9 1011.7 - 0.0
30/06:30pm 33.2 30.5 10.3 24 13.3 NE 15 19 8 10 1011.4 - 0.0
30/06:00pm 33.7 31.0 10.4 24 13.6 NNE 15 19 8 10 1011.1 1010.0 0.0
30/05:30pm 34.6 32.7 9.2 21 14.6 NE 9 13 5 7 1010.8 - 0.0
30/05:00pm 35.6 32.9 9.0 19 15.3 ENE 13 17 7 9 1010.4 - 0.0
30/04:30pm 36.1 32.4 7.9 17 16.0 ENE 17 20 9 11 1010.0 - 0.0
30/04:00pm 36.7 33.4 7.9 17 16.4 NE 15 24 8 13 1009.8 - 0.0
30/03:30pm 36.7 34.0 9.1 18 16.0 NE 13 22 7 12 1009.6 - 0.0
30/03:00pm 37.4 34.1 8.0 16 16.8 E 15 28 8 15 1009.7 1008.6 0.0
30/02:30pm 37.8 33.7 7.9 16 17.1 NE 19 28 10 15 1009.7 - 0.0
30/02:00pm 37.3 35.3 12.8 23 15.0 ENE 15 26 8 14 1010.0 - 0.0
30/01:30pm 36.8 34.4 12.5 23 14.8 NE 17 30 9 16 1010.1 - 0.0
30/01:00pm 36.4 35.0 12.3 23 14.6 NE 11 19 6 10 1010.5 - 0.0
30/12:30pm 35.4 32.6 12.7 25 13.8 NE 19 30 10 16 1011.0 - 0.0
30/12:00pm 35.5 33.6 14.3 28 13.2 NNE 17 26 9 14 1011.5 1010.4 0.0
30/11:30am 35.9 33.3 13.9 26 13.6 NE 20 26 11 14 1011.9 - 0.0
30/11:00am 35.7 33.9 12.1 24 14.2 NNE 13 22 7 12 1012.5 - 0.0
30/10:30am 35.4 34.2 15.0 29 12.8 NE 15 24 8 13 1013.1 - 0.0
30/10:00am 35.3 33.8 12.0 24 14.0 NE 11 22 6 12 1013.5 - 0.0
30/09:30am 33.8 33.6 14.6 31 11.9 NE 9 15 5 8 1013.8 - 0.0
30/09:00am 32.4 33.2 16.3 38 10.2 N 7 13 4 7 1014.0 1012.9 0.0
30/08:30am 30.3 31.3 16.9 44 8.5 NNW 7 13 4 7 1014.2 - 0.0
30/08:00am 29.3 29.5 16.8 47 7.9 N 11 17 6 9 1014.4 - 0.0
30/07:30am 27.6 28.2 16.7 51 6.8 N 9 13 5 7 1014.4 - 0.0
30/07:00am 26.8 27.4 15.3 49 7.0 NNE 6 9 3 5 1014.3 - 0.0
30/06:30am 24.6 26.0 14.4 53 6.1 CALM 0 4 0 2 1014.0 - 0.0
30/06:00am 22.8 22.7 13.8 57 5.3 WNW 7 7 4 4 1013.7 1012.6 0.0
30/05:30am 22.6 22.8 14.7 61 4.7 N 7 9 4 5 1013.4 - 0.0
30/05:00am 22.1 21.6 13.7 59 4.9 E 9 11 5 6 1013.1 - 0.0
30/04:30am 22.2 21.6 12.4 53 5.6 E 7 9 4 5 1012.8 - 0.0
30/04:00am 24.3 25.4 13.6 51 6.3 CALM 0 4 0 2 1012.4 - 0.0
30/03:30am 24.4 24.0 13.1 49 6.6 WSW 7 9 4 5 1012.0 - 0.0
30/03:00am 24.1 23.5 12.3 47 6.8 W 7 9 4 5 1011.8 1010.8 0.0
30/02:30am 24.7 23.2 11.8 44 7.4 WNW 11 13 6 7 1011.6 - 0.0
30/02:00am 24.8 24.0 11.7 44 7.5 NNW 7 7 4 4 1011.6 - 0.0
30/01:30am 24.9 23.8 12.0 44 7.4 NNW 9 13 5 7 1011.6 - 0.0
30/01:00am 26.1 24.0 11.0 38 8.6 N 13 15 7 8 1011.6 - 0.0
30/12:30am 26.1 25.0 12.1 41 8.1 NNW 9 13 5 7 1011.4 - 0.0
30/12:00am 26.0 25.9 13.3 45 7.5 ESE 6 9 3 5 1011.5 1010.4 0.0
 
Date/Time
WST
Temp
°C
App
Temp
°C
Dew
Point
Rel
Hum
%
Delta-T
°C
Wind Press
QNH
hPa
Press
MSL
hPa
Rain
since 9 am
mm
Dir
 
Spd
km/h
Gust
km/h
Spd
kts
Gust
kts
29/11:30pm 25.9 25.8 13.4 46 7.4 ENE 6 9 3 5 1011.7 - 0.0
29/11:00pm 27.6 26.9 13.1 40 8.6 NNW 9 9 5 5 1011.8 - 0.0

Other Formats:

Comma delimited format used in spreadsheet applications
http://www.bom.gov.au/fwo/IDW60801/IDW60801.94217.axf

JavaScript Object Notation format (JSON) in row-major order
http://www.bom.gov.au/fwo/IDW60801/IDW60801.94217.json